sensor_id;sensor_type;location;lat;lon;timestamp;pressure;altitude;pressure_sealevel;temperature;humidity
70458;BME280;57919;56.194;95.716;2022-08-21T00:08:39;98832.09;;;13.80;77.82
70458;BME280;57919;56.194;95.716;2022-08-21T00:18:42;98845.44;;;14.24;77.24
70458;BME280;57919;56.194;95.716;2022-08-21T00:28:44;98834.44;;;14.91;76.49
70458;BME280;57919;56.194;95.716;2022-08-21T00:38:47;98835.50;;;15.92;74.43
70458;BME280;57919;56.194;95.716;2022-08-21T00:48:49;98824.44;;;16.39;73.32
70458;BME280;57919;56.194;95.716;2022-08-21T00:58:52;98820.00;;;16.84;72.13
70458;BME280;57919;56.194;95.716;2022-08-21T01:08:55;98839.66;;;17.17;70.39
70458;BME280;57919;56.194;95.716;2022-08-21T01:18:57;98839.94;;;17.07;70.30
70458;BME280;57919;56.194;95.716;2022-08-21T01:39:35;98846.44;;;17.06;69.35
70458;BME280;57919;56.194;95.716;2022-08-21T01:49:38;98832.38;;;17.09;68.50
70458;BME280;57919;56.194;95.716;2022-08-21T01:59:40;98851.38;;;17.55;66.85
70458;BME280;57919;56.194;95.716;2022-08-21T02:09:42;98857.84;;;18.92;63.54
70458;BME280;57919;56.194;95.716;2022-08-21T02:19:45;98861.94;;;18.38;63.77
70458;BME280;57919;56.194;95.716;2022-08-21T02:29:46;98865.50;;;17.44;65.51
70458;BME280;57919;56.194;95.716;2022-08-21T02:39:49;98872.44;;;17.02;66.04
70458;BME280;57919;56.194;95.716;2022-08-21T02:49:52;98886.59;;;17.21;65.82
70458;BME280;57919;56.194;95.716;2022-08-21T02:59:53;98889.97;;;17.90;64.50
70458;BME280;57919;56.194;95.716;2022-08-21T03:09:55;98891.50;;;18.28;62.99
70458;BME280;57919;56.194;95.716;2022-08-21T03:19:58;98885.09;;;18.57;61.99
70458;BME280;57919;56.194;95.716;2022-08-21T03:30:01;98892.03;;;20.14;58.48
70458;BME280;57919;56.194;95.716;2022-08-21T03:40:07;98891.28;;;22.32;52.55
70458;BME280;57919;56.194;95.716;2022-08-21T03:50:10;98886.31;;;21.89;51.67
70458;BME280;57919;56.194;95.716;2022-08-21T04:00:14;98885.03;;;20.05;55.36
70458;BME280;57919;56.194;95.716;2022-08-21T04:10:16;98871.22;;;19.29;55.84
70458;BME280;57919;56.194;95.716;2022-08-21T04:20:20;98859.72;;;21.17;51.63
70458;BME280;57919;56.194;95.716;2022-08-21T04:30:23;98839.00;;;23.99;45.48
70458;BME280;57919;56.194;95.716;2022-08-21T04:40:27;98850.81;;;24.73;43.71
70458;BME280;57919;56.194;95.716;2022-08-21T04:50:54;98829.34;;;24.27;44.69
70458;BME280;57919;56.194;95.716;2022-08-21T05:00:58;98819.91;;;22.55;46.86
70458;BME280;57919;56.194;95.716;2022-08-21T05:11:03;98794.53;;;24.91;41.99
70458;BME280;57919;56.194;95.716;2022-08-21T05:21:05;98806.75;;;24.60;41.80
70458;BME280;57919;56.194;95.716;2022-08-21T05:31:07;98785.75;;;22.56;42.80
70458;BME280;57919;56.194;95.716;2022-08-21T05:41:09;98797.28;;;21.17;45.26
70458;BME280;57919;56.194;95.716;2022-08-21T05:51:14;98786.50;;;20.43;46.86
70458;BME280;57919;56.194;95.716;2022-08-21T06:01:16;98795.81;;;19.47;48.84
70458;BME280;57919;56.194;95.716;2022-08-21T06:11:18;98788.47;;;19.19;49.89
70458;BME280;57919;56.194;95.716;2022-08-21T06:21:20;98788.94;;;19.29;50.61
70458;BME280;57919;56.194;95.716;2022-08-21T06:31:24;98768.00;;;20.04;49.64
70458;BME280;57919;56.194;95.716;2022-08-21T06:41:29;98758.78;;;21.31;47.76
70458;BME280;57919;56.194;95.716;2022-08-21T06:51:32;98742.91;;;21.26;46.24
70458;BME280;57919;56.194;95.716;2022-08-21T07:01:33;98724.56;;;20.67;45.96
70458;BME280;57919;56.194;95.716;2022-08-21T07:11:36;98755.22;;;20.51;44.92
70458;BME280;57919;56.194;95.716;2022-08-21T07:21:39;98737.19;;;20.15;46.17
70458;BME280;57919;56.194;95.716;2022-08-21T07:31:41;98733.41;;;20.29;46.27
70458;BME280;57919;56.194;95.716;2022-08-21T07:41:43;98716.91;;;21.02;45.09
70458;BME280;57919;56.194;95.716;2022-08-21T07:51:45;98713.63;;;21.51;42.93
70458;BME280;57919;56.194;95.716;2022-08-21T08:01:47;98697.22;;;22.14;40.70
70458;BME280;57919;56.194;95.716;2022-08-21T08:11:49;98696.41;;;22.07;38.95
70458;BME280;57919;56.194;95.716;2022-08-21T08:21:52;98695.41;;;21.50;39.99
70458;BME280;57919;56.194;95.716;2022-08-21T08:31:54;98692.91;;;21.42;40.45
70458;BME280;57919;56.194;95.716;2022-08-21T08:42:24;98694.31;;;21.96;39.58
70458;BME280;57919;56.194;95.716;2022-08-21T08:52:30;98702.56;;;21.65;39.05
70458;BME280;57919;56.194;95.716;2022-08-21T09:02:33;98702.47;;;21.33;40.10
70458;BME280;57919;56.194;95.716;2022-08-21T09:33:12;98683.72;;;20.05;42.01
70458;BME280;57919;56.194;95.716;2022-08-21T09:43:18;98692.78;;;19.98;42.38
70458;BME280;57919;56.194;95.716;2022-08-21T10:03:25;98690.25;;;19.97;42.69
70458;BME280;57919;56.194;95.716;2022-08-21T10:13:58;98687.69;;;19.82;43.62
70458;BME280;57919;56.194;95.716;2022-08-21T10:24:24;98689.13;;;19.72;44.45
70458;BME280;57919;56.194;95.716;2022-08-21T10:45:15;98672.78;;;20.44;43.24
70458;BME280;57919;56.194;95.716;2022-08-21T10:55:26;98671.69;;;20.19;43.95
70458;BME280;57919;56.194;95.716;2022-08-21T11:05:53;98680.56;;;20.21;44.23
70458;BME280;57919;56.194;95.716;2022-08-21T11:26:28;98697.56;;;19.70;46.16
70458;BME280;57919;56.194;95.716;2022-08-21T11:57:02;98748.06;;;18.08;53.56
70458;BME280;57919;56.194;95.716;2022-08-21T12:07:17;98741.44;;;16.86;57.16
70458;BME280;57919;56.194;95.716;2022-08-21T12:17:24;98730.06;;;16.60;58.45
70458;BME280;57919;56.194;95.716;2022-08-21T12:38:00;98723.53;;;16.46;60.09
70458;BME280;57919;56.194;95.716;2022-08-21T12:48:14;98724.47;;;16.38;60.46
70458;BME280;57919;56.194;95.716;2022-08-21T12:58:23;98726.41;;;16.30;61.18
70458;BME280;57919;56.194;95.716;2022-08-21T13:08:26;98730.59;;;16.18;61.78
70458;BME280;57919;56.194;95.716;2022-08-21T13:18:31;98730.78;;;15.93;62.04
70458;BME280;57919;56.194;95.716;2022-08-21T13:28:35;98733.25;;;15.57;62.85
70458;BME280;57919;56.194;95.716;2022-08-21T13:38:40;98740.16;;;15.29;63.17
70458;BME280;57919;56.194;95.716;2022-08-21T13:48:43;98731.38;;;15.10;63.50
70458;BME280;57919;56.194;95.716;2022-08-21T13:58:46;98737.56;;;14.96;63.28
70458;BME280;57919;56.194;95.716;2022-08-21T14:09:08;98762.28;;;14.86;63.47
70458;BME280;57919;56.194;95.716;2022-08-21T14:19:21;98754.47;;;14.75;63.29
70458;BME280;57919;56.194;95.716;2022-08-21T14:29:27;98753.13;;;14.63;63.79
70458;BME280;57919;56.194;95.716;2022-08-21T14:39:29;98765.91;;;14.54;64.17
70458;BME280;57919;56.194;95.716;2022-08-21T14:49:31;98749.56;;;14.46;64.83
70458;BME280;57919;56.194;95.716;2022-08-21T14:59:34;98765.56;;;14.58;64.77
70458;BME280;57919;56.194;95.716;2022-08-21T15:09:37;98768.59;;;14.63;64.90
70458;BME280;57919;56.194;95.716;2022-08-21T15:19:39;98787.00;;;14.61;65.14
70458;BME280;57919;56.194;95.716;2022-08-21T15:29:42;98781.22;;;14.56;65.31
70458;BME280;57919;56.194;95.716;2022-08-21T15:39:44;98814.22;;;14.61;65.06
70458;BME280;57919;56.194;95.716;2022-08-21T15:49:47;98819.16;;;14.57;65.44
70458;BME280;57919;56.194;95.716;2022-08-21T15:59:56;98813.53;;;14.42;65.63
70458;BME280;57919;56.194;95.716;2022-08-21T16:09:59;98799.88;;;14.34;66.21
70458;BME280;57919;56.194;95.716;2022-08-21T16:20:04;98816.75;;;14.46;65.78
70458;BME280;57919;56.194;95.716;2022-08-21T16:30:08;98816.41;;;14.49;65.62
70458;BME280;57919;56.194;95.716;2022-08-21T16:40:10;98810.97;;;14.49;65.58
70458;BME280;57919;56.194;95.716;2022-08-21T16:50:16;98808.06;;;14.34;65.93
70458;BME280;57919;56.194;95.716;2022-08-21T17:00:18;98797.16;;;14.18;66.21
70458;BME280;57919;56.194;95.716;2022-08-21T17:10:20;98799.53;;;14.05;66.69
70458;BME280;57919;56.194;95.716;2022-08-21T17:20:22;98794.06;;;13.97;66.63
70458;BME280;57919;56.194;95.716;2022-08-21T17:30:26;98787.41;;;13.83;67.17
70458;BME280;57919;56.194;95.716;2022-08-21T17:40:28;98796.72;;;13.72;67.79
70458;BME280;57919;56.194;95.716;2022-08-21T17:50:31;98797.03;;;13.61;68.24
70458;BME280;57919;56.194;95.716;2022-08-21T18:00:33;98801.44;;;13.54;69.07
70458;BME280;57919;56.194;95.716;2022-08-21T18:10:38;98792.91;;;13.49;69.58
70458;BME280;57919;56.194;95.716;2022-08-21T18:20:42;98781.56;;;13.53;69.74
70458;BME280;57919;56.194;95.716;2022-08-21T18:30:43;98779.34;;;13.57;70.21
70458;BME280;57919;56.194;95.716;2022-08-21T18:40:49;98768.31;;;13.58;70.27
70458;BME280;57919;56.194;95.716;2022-08-21T18:50:51;98770.34;;;13.56;70.63
70458;BME280;57919;56.194;95.716;2022-08-21T19:00:53;98767.25;;;13.43;71.31
70458;BME280;57919;56.194;95.716;2022-08-21T19:10:57;98767.06;;;13.37;71.76
70458;BME280;57919;56.194;95.716;2022-08-21T19:21:01;98777.56;;;13.32;72.29
70458;BME280;57919;56.194;95.716;2022-08-21T19:31:26;98751.31;;;13.14;72.65
70458;BME280;57919;56.194;95.716;2022-08-21T19:41:31;98774.38;;;13.10;73.67
70458;BME280;57919;56.194;95.716;2022-08-21T19:51:34;98770.78;;;13.02;73.75
70458;BME280;57919;56.194;95.716;2022-08-21T20:01:36;98773.66;;;13.00;74.52
70458;BME280;57919;56.194;95.716;2022-08-21T20:11:42;98758.00;;;12.94;75.01
70458;BME280;57919;56.194;95.716;2022-08-21T20:21:44;98759.19;;;12.91;75.41
70458;BME280;57919;56.194;95.716;2022-08-21T20:31:46;98766.00;;;12.96;75.78
70458;BME280;57919;56.194;95.716;2022-08-21T20:41:50;98773.81;;;12.99;75.92
70458;BME280;57919;56.194;95.716;2022-08-21T20:51:52;98776.84;;;12.96;76.05
70458;BME280;57919;56.194;95.716;2022-08-21T21:02:00;98771.25;;;12.97;76.42
70458;BME280;57919;56.194;95.716;2022-08-21T21:12:20;98765.94;;;12.87;76.59
70458;BME280;57919;56.194;95.716;2022-08-21T21:22:33;98773.25;;;12.87;77.06
70458;BME280;57919;56.194;95.716;2022-08-21T21:32:37;98780.69;;;12.85;77.19
70458;BME280;57919;56.194;95.716;2022-08-21T21:43:02;98790.59;;;12.94;76.83
70458;BME280;57919;56.194;95.716;2022-08-21T21:53:19;98791.91;;;12.90;77.19
70458;BME280;57919;56.194;95.716;2022-08-21T22:03:41;98783.88;;;12.80;77.07
70458;BME280;57919;56.194;95.716;2022-08-21T22:24:02;98801.97;;;12.98;76.83
70458;BME280;57919;56.194;95.716;2022-08-21T22:34:17;98808.78;;;13.02;76.65
70458;BME280;57919;56.194;95.716;2022-08-21T22:44:24;98817.25;;;12.99;77.03
70458;BME280;57919;56.194;95.716;2022-08-21T22:54:33;98814.00;;;12.95;76.94
70458;BME280;57919;56.194;95.716;2022-08-21T23:04:44;98828.66;;;13.02;76.96
70458;BME280;57919;56.194;95.716;2022-08-21T23:14:49;98842.66;;;13.15;76.66
70458;BME280;57919;56.194;95.716;2022-08-21T23:56:26;98852.94;;;13.04;77.68
